Accueil
METAR-TAF:

METAR-TAF

Aéroports :

Rahim Yar Khan, Pakistan

latitude: 28-23-02N, longitude: 70-16-47E, altitude: 83 m

METAR: absent

Heure: 10:18 (05:18 UTC)

Prévision

Le bulletin a été fait il y a 7 heures et 33 minutes, à 21:45 UTC
Prévision valable du 08 à 00 UTC au 08 à 18 UTC
Vent 5 kt de nord-est
Visibilité: 3000 m
Quelques nuages à une hauteur de 12000 ft
fumée
Probabilité 30% :
Temporairement
du 08 à 01 UTC au 08 à 04 UTC
Vent kt de nord
Visibilité: 2000 m
brume

TAF: OPRK 072145Z 0800/0818 05005KT 3000 FU FEW120 TN08/0801Z TX25/0810Z PROB30 TEMPO 0801/0804 00000KT 2000 BR NSC

Observations et prévisions météorologiques de plus de 4000 aéroports (messages METAR et TAF).

Les stations disponibles sont représentées par des disques jaunes et rouges sur la carte.

Passer la souris dessus pour voir le nom de la station.

Cliquer dessus pour voir les observations et prévisions météorologiques.

Pour changer de carte: cliquez sur les boutons verts avec une croix noire pour zoomer, sur le bouton vert avec un tiret pour effectuer un zoom arrière, ou sur les flèches vertes pour les cartes adjacentes.


METAR-TAF: